createdAt,value
2023-04-20T00:01:17.820Z,7.20
2023-04-20T00:03:45.295Z,7.30
2023-04-20T00:06:14.068Z,7.30
2023-04-20T00:08:41.261Z,7.40
2023-04-20T00:11:08.443Z,7.40
2023-04-20T00:13:35.662Z,7.40
2023-04-20T00:16:03.192Z,7.40
2023-04-20T00:18:30.420Z,7.50
2023-04-20T00:20:57.594Z,7.40
2023-04-20T00:23:24.799Z,7.50
2023-04-20T00:25:52.239Z,7.50
2023-04-20T00:28:19.498Z,7.50
2023-04-20T00:30:46.670Z,7.50
2023-04-20T00:33:13.882Z,7.50
2023-04-20T00:35:41.092Z,7.50
2023-04-20T00:38:08.277Z,7.50
2023-04-20T00:40:35.695Z,7.50
2023-04-20T00:43:14.257Z,7.50
2023-04-20T00:45:41.714Z,7.50
2023-04-20T00:48:08.892Z,7.50
2023-04-20T00:50:37.702Z,7.40
2023-04-20T00:53:07.044Z,7.40
2023-04-20T00:55:37.813Z,7.30
2023-04-20T00:58:06.597Z,7.30
2023-04-20T01:00:34.821Z,7.40
2023-04-20T01:03:02.285Z,7.30
2023-04-20T01:05:29.843Z,7.30
2023-04-20T01:07:57.141Z,7.30
2023-04-20T01:10:24.486Z,7.20
2023-04-20T01:12:51.745Z,7.20
2023-04-20T01:15:18.993Z,7.20
2023-04-20T01:17:46.310Z,7.10
2023-04-20T01:20:14.671Z,7.20
2023-04-20T01:22:51.335Z,7.10
2023-04-20T01:25:19.196Z,7.10
2023-04-20T01:27:46.735Z,7.10
2023-04-20T01:30:14.585Z,7.10
2023-04-20T01:32:41.987Z,7.10
2023-04-20T01:35:10.573Z,7.10
2023-04-20T01:37:39.344Z,7.10
2023-04-20T01:40:10.578Z,7.20
2023-04-20T01:42:37.914Z,7.30
2023-04-20T01:45:06.889Z,7.30
2023-04-20T01:47:34.930Z,7.30
2023-04-20T01:50:02.181Z,7.30
2023-04-20T01:52:29.410Z,7.40
2023-04-20T01:54:56.613Z,7.40
2023-04-20T01:57:23.879Z,7.40
2023-04-20T01:59:51.115Z,7.40
2023-04-20T02:02:18.699Z,7.40
2023-04-20T02:04:45.989Z,7.40
2023-04-20T02:07:13.176Z,7.40
2023-04-20T02:09:40.496Z,7.40
2023-04-20T02:12:07.800Z,7.50
2023-04-20T02:14:34.995Z,7.50
2023-04-20T02:17:02.426Z,7.40
2023-04-20T02:19:29.742Z,7.50
2023-04-20T02:21:56.956Z,7.50
2023-04-20T02:24:24.097Z,7.60
2023-04-20T02:26:51.448Z,7.50
2023-04-20T02:29:18.741Z,7.50
2023-04-20T02:31:46.174Z,7.50
2023-04-20T02:34:13.388Z,7.50
2023-04-20T02:36:40.861Z,7.50
2023-04-20T02:39:08.057Z,7.50
2023-04-20T02:41:35.210Z,7.50
2023-04-20T02:44:02.485Z,7.50
2023-04-20T02:46:29.749Z,7.50
2023-04-20T02:48:57.078Z,7.50
2023-04-20T02:51:24.496Z,7.50
2023-04-20T02:53:51.683Z,7.40
2023-04-20T02:56:19.024Z,7.40
2023-04-20T02:58:48.296Z,7.40
2023-04-20T03:01:15.980Z,7.40
2023-04-20T03:03:43.371Z,7.40
2023-04-20T03:06:10.879Z,7.30
2023-04-20T03:08:38.057Z,7.30
2023-04-20T03:11:05.323Z,7.20
2023-04-20T03:13:32.538Z,7.20
2023-04-20T03:15:59.784Z,7.20
2023-04-20T03:18:27.076Z,7.20
2023-04-20T03:20:54.620Z,7.20
2023-04-20T03:23:21.950Z,7.10
2023-04-20T03:25:49.341Z,7.10
2023-04-20T03:28:16.735Z,7.10
2023-04-20T03:30:44.075Z,7.00
2023-04-20T03:33:11.893Z,7.00
2023-04-20T03:35:39.545Z,6.90
2023-04-20T03:38:06.841Z,6.90
2023-04-20T03:40:34.996Z,6.90
2023-04-20T03:43:02.206Z,6.80
2023-04-20T03:45:29.518Z,6.80
2023-04-20T03:47:56.724Z,6.80
2023-04-20T03:50:23.976Z,6.80
2023-04-20T03:52:51.630Z,6.80
2023-04-20T03:55:18.870Z,6.80
2023-04-20T03:57:46.028Z,6.70
2023-04-20T04:00:14.219Z,6.70
2023-04-20T04:02:41.491Z,6.70
2023-04-20T04:05:09.019Z,6.70
2023-04-20T04:07:36.385Z,6.60
2023-04-20T04:10:05.863Z,6.60
2023-04-20T04:12:33.201Z,6.60
2023-04-20T04:15:00.435Z,6.60
2023-04-20T04:17:27.681Z,6.60
2023-04-20T04:19:54.893Z,6.60
2023-04-20T04:22:22.117Z,6.60
2023-04-20T04:24:49.472Z,6.70
2023-04-20T04:27:16.771Z,6.70
2023-04-20T04:29:44.821Z,6.80
2023-04-20T04:32:12.505Z,6.80
2023-04-20T04:34:39.719Z,6.90
2023-04-20T04:37:06.924Z,6.90
2023-04-20T04:39:34.142Z,7.00
2023-04-20T04:42:04.340Z,7.00
2023-04-20T04:44:33.323Z,7.10
2023-04-20T04:47:02.921Z,7.10
2023-04-20T04:49:30.883Z,7.20
2023-04-20T04:51:59.187Z,7.30
2023-04-20T04:54:26.401Z,7.30
2023-04-20T04:56:53.631Z,7.40
2023-04-20T04:59:20.959Z,7.50
2023-04-20T05:01:48.160Z,7.50
2023-04-20T05:04:15.677Z,7.60
2023-04-20T05:06:42.985Z,7.60
2023-04-20T05:09:10.166Z,7.70
2023-04-20T05:11:37.391Z,7.80
2023-04-20T05:14:04.584Z,7.90
2023-04-20T05:16:31.813Z,8.00
2023-04-20T05:18:59.078Z,8.10
2023-04-20T05:21:26.347Z,8.10
2023-04-20T05:23:53.611Z,8.20
2023-04-20T05:26:21.214Z,8.30
2023-04-20T05:28:48.403Z,8.30
2023-04-20T05:31:15.878Z,8.40
2023-04-20T05:33:43.465Z,8.50
2023-04-20T05:36:10.940Z,8.60
2023-04-20T05:38:39.204Z,8.60
2023-04-20T05:41:06.652Z,8.70
2023-04-20T05:43:33.893Z,8.80
2023-04-20T05:46:01.147Z,8.90
2023-04-20T05:48:30.023Z,9.10
2023-04-20T05:50:58.339Z,9.10
2023-04-20T05:53:26.249Z,9.20
2023-04-20T05:55:53.680Z,9.30
2023-04-20T05:58:20.971Z,9.50
2023-04-20T06:00:48.343Z,9.60
2023-04-20T06:03:16.749Z,9.70
2023-04-20T06:05:44.336Z,9.80
2023-04-20T06:08:12.168Z,10.00
2023-04-20T06:10:39.409Z,10.10
2023-04-20T06:13:06.583Z,10.20
2023-04-20T06:15:33.844Z,10.40
2023-04-20T06:18:01.795Z,10.60
2023-04-20T06:20:29.277Z,10.70
2023-04-20T06:22:57.087Z,10.80
2023-04-20T06:25:24.406Z,11.00
2023-04-20T06:27:52.821Z,11.20
2023-04-20T06:30:20.486Z,11.20
2023-04-20T06:32:47.772Z,11.40
2023-04-20T06:35:15.141Z,11.50
2023-04-20T06:37:42.374Z,11.60
2023-04-20T06:40:09.814Z,11.70
2023-04-20T06:42:40.095Z,11.80
2023-04-20T06:45:08.451Z,12.00
2023-04-20T06:47:36.912Z,12.10
2023-04-20T06:50:09.826Z,12.20
2023-04-20T06:52:41.735Z,12.20
2023-04-20T06:55:10.170Z,12.40
2023-04-20T06:57:40.159Z,12.50
2023-04-20T07:00:10.472Z,12.70
2023-04-20T07:02:49.509Z,12.70
2023-04-20T07:05:18.268Z,12.80
2023-04-20T07:07:46.171Z,12.90
2023-04-20T07:10:15.777Z,13.00
2023-04-20T07:12:44.115Z,13.00
2023-04-20T07:15:12.096Z,13.10
2023-04-20T07:17:39.431Z,13.20
2023-04-20T07:20:08.678Z,13.30
2023-04-20T07:22:37.379Z,13.30
2023-04-20T07:25:08.144Z,13.40
2023-04-20T07:27:37.849Z,13.40
2023-04-20T07:30:06.958Z,13.50
2023-04-20T07:32:35.223Z,13.50
2023-04-20T07:35:03.482Z,13.50
2023-04-20T07:37:32.015Z,13.60
2023-04-20T07:39:59.223Z,13.60
2023-04-20T07:42:26.732Z,13.80
2023-04-20T07:44:54.429Z,13.90
2023-04-20T07:47:21.791Z,14.00
2023-04-20T07:49:49.170Z,14.10
2023-04-20T07:52:17.441Z,14.10
2023-04-20T07:54:45.722Z,14.10
2023-04-20T07:57:13.321Z,14.20
2023-04-20T07:59:40.873Z,14.30
2023-04-20T08:02:09.148Z,14.40
2023-04-20T08:04:41.181Z,14.30
2023-04-20T08:07:08.741Z,14.40
2023-04-20T08:09:36.004Z,14.60
2023-04-20T08:12:03.419Z,14.70
2023-04-20T08:14:30.827Z,14.90
2023-04-20T08:16:58.042Z,15.00
2023-04-20T08:19:25.294Z,15.10
2023-04-20T08:21:52.958Z,15.20
2023-04-20T08:24:20.891Z,15.30
2023-04-20T08:26:48.409Z,15.40
2023-04-20T08:29:15.844Z,15.60
2023-04-20T08:31:43.348Z,15.80
2023-04-20T08:34:12.200Z,16.00
2023-04-20T08:36:39.481Z,16.00
2023-04-20T08:39:09.606Z,15.90
2023-04-20T08:41:37.178Z,16.00
2023-04-20T08:44:04.879Z,16.10
2023-04-20T08:46:34.668Z,16.10
2023-04-20T08:49:05.001Z,16.20
2023-04-20T08:51:32.671Z,16.20
2023-04-20T08:54:06.098Z,16.10
2023-04-20T08:56:38.694Z,16.30
2023-04-20T08:59:10.046Z,16.50
2023-04-20T09:01:41.956Z,16.70
2023-04-20T09:04:21.274Z,16.80
2023-04-20T09:06:51.385Z,16.80
2023-04-20T09:09:25.324Z,17.00
2023-04-20T09:12:09.951Z,17.20
2023-04-20T09:14:48.111Z,17.30
2023-04-20T09:17:17.889Z,17.50
2023-04-20T09:19:54.462Z,17.70
2023-04-20T09:22:37.148Z,17.90
2023-04-20T09:25:18.219Z,18.00
2023-04-20T09:28:00.017Z,18.00
2023-04-20T09:30:45.390Z,18.00
2023-04-20T09:33:14.634Z,17.90
2023-04-20T09:35:45.737Z,17.90
2023-04-20T09:38:17.160Z,17.80
2023-04-20T09:40:44.671Z,17.70
2023-04-20T09:43:19.923Z,17.70
2023-04-20T09:45:47.576Z,17.70
2023-04-20T09:48:19.016Z,17.70
2023-04-20T09:50:50.123Z,17.80
2023-04-20T09:53:19.677Z,17.80
2023-04-20T09:55:49.724Z,17.70
2023-04-20T09:58:21.639Z,17.70
2023-04-20T10:00:50.084Z,17.60
2023-04-20T10:03:19.561Z,17.60
2023-04-20T10:05:47.507Z,17.60
2023-04-20T10:08:14.877Z,17.50
2023-04-20T10:10:46.677Z,17.50
2023-04-20T10:13:16.129Z,17.40
2023-04-20T10:15:43.560Z,17.50
2023-04-20T10:18:20.364Z,17.70
2023-04-20T10:20:47.774Z,17.90
2023-04-20T10:23:16.432Z,18.00
2023-04-20T10:25:45.517Z,18.20
2023-04-20T10:28:12.865Z,18.40
2023-04-20T10:30:51.661Z,18.80
2023-04-20T10:33:19.667Z,19.00
2023-04-20T10:35:56.318Z,19.10
2023-04-20T10:38:35.557Z,19.20
2023-04-20T10:41:14.678Z,19.20
2023-04-20T10:43:44.682Z,19.20
2023-04-20T10:46:24.372Z,19.40
2023-04-20T10:49:03.811Z,19.40
2023-04-20T10:51:31.618Z,19.50
2023-04-20T10:54:08.648Z,19.60
2023-04-20T10:56:48.318Z,19.80
2023-04-20T10:59:18.224Z,20.10
2023-04-20T11:01:47.014Z,20.10
2023-04-20T11:04:18.313Z,20.20
2023-04-20T11:06:50.460Z,20.10
2023-04-20T11:09:28.430Z,20.00
2023-04-20T11:12:16.134Z,20.10
2023-04-20T11:15:10.152Z,20.40
2023-04-20T11:17:39.581Z,20.30
2023-04-20T11:20:16.390Z,20.40
2023-04-20T11:22:44.617Z,20.60
2023-04-20T11:25:13.064Z,20.70
2023-04-20T11:27:42.274Z,20.80
2023-04-20T11:30:10.488Z,20.80
2023-04-20T11:32:38.380Z,20.90
2023-04-20T11:35:11.137Z,21.00
2023-04-20T11:37:51.495Z,21.10
2023-04-20T11:40:19.202Z,21.20
2023-04-20T11:42:46.577Z,21.20
2023-04-20T11:45:13.725Z,21.30
2023-04-20T11:47:41.083Z,21.40
2023-04-20T11:50:10.341Z,21.40
2023-04-20T11:52:37.796Z,21.20
2023-04-20T11:55:05.986Z,21.20
2023-04-20T11:57:33.521Z,21.10
2023-04-20T12:00:01.144Z,21.10
2023-04-20T12:02:28.458Z,20.90
2023-04-20T12:04:55.933Z,20.70
2023-04-20T12:07:23.379Z,20.40
2023-04-20T12:09:50.691Z,20.20
2023-04-20T12:12:18.072Z,20.10
2023-04-20T12:14:45.315Z,20.10
2023-04-20T12:17:12.485Z,20.10
2023-04-20T12:19:39.686Z,20.00
2023-04-20T12:22:06.968Z,19.90
2023-04-20T12:24:34.199Z,19.80
2023-04-20T12:27:01.596Z,20.20
2023-04-20T12:29:31.188Z,20.30
2023-04-20T12:31:58.857Z,20.40
2023-04-20T12:34:26.719Z,20.30
2023-04-20T12:36:53.936Z,20.40
2023-04-20T12:39:21.909Z,20.40
2023-04-20T12:41:49.093Z,20.40
2023-04-20T12:44:17.634Z,20.30
2023-04-20T12:46:45.578Z,20.40
2023-04-20T12:49:12.917Z,20.50
2023-04-20T12:51:40.893Z,20.50
2023-04-20T12:54:08.586Z,20.50
2023-04-20T12:56:38.356Z,20.50
2023-04-20T12:59:05.683Z,20.40
2023-04-20T13:01:33.032Z,20.30
2023-04-20T13:04:00.561Z,20.20
2023-04-20T13:06:28.132Z,20.10
2023-04-20T13:08:55.337Z,20.00
2023-04-20T13:11:22.521Z,19.90
2023-04-20T13:13:49.705Z,19.90
2023-04-20T13:16:17.000Z,19.90
2023-04-20T13:18:44.674Z,19.90
2023-04-20T13:21:11.897Z,19.90
2023-04-20T13:23:40.060Z,19.90
2023-04-20T13:26:08.492Z,20.10
2023-04-20T13:28:35.679Z,20.30
2023-04-20T13:31:02.794Z,20.30
2023-04-20T13:33:30.330Z,20.30
2023-04-20T13:35:57.405Z,20.20
2023-04-20T13:38:24.510Z,20.10
2023-04-20T13:40:51.729Z,20.00
2023-04-20T13:43:21.358Z,19.90
2023-04-20T13:45:48.998Z,20.10
2023-04-20T13:48:16.281Z,20.20
2023-04-20T13:50:43.451Z,20.40
2023-04-20T13:53:10.526Z,20.30
2023-04-20T13:55:37.641Z,20.20
2023-04-20T13:58:04.814Z,20.00
2023-04-20T14:00:34.178Z,19.90
2023-04-20T14:03:02.353Z,19.70
2023-04-20T14:05:29.839Z,19.70
2023-04-20T14:08:01.436Z,19.60
2023-04-20T14:10:29.268Z,19.60
2023-04-20T14:12:57.392Z,19.60
2023-04-20T14:15:24.872Z,19.60
2023-04-20T14:17:53.011Z,19.50
2023-04-20T14:20:27.594Z,19.60
2023-04-20T14:22:54.808Z,19.60
2023-04-20T14:25:22.115Z,19.60
2023-04-20T14:27:49.373Z,19.70
2023-04-20T14:30:16.694Z,19.80
2023-04-20T14:32:57.452Z,19.70
2023-04-20T14:35:27.472Z,19.70
2023-04-20T14:37:54.900Z,19.60
2023-04-20T14:40:22.385Z,19.60
2023-04-20T14:42:49.640Z,19.50
2023-04-20T14:45:16.938Z,19.50
2023-04-20T14:47:44.195Z,19.50
2023-04-20T14:50:11.897Z,19.40
2023-04-20T14:52:39.083Z,19.40
2023-04-20T14:55:06.789Z,19.50
2023-04-20T14:57:34.328Z,19.40
2023-04-20T15:00:01.599Z,19.40
2023-04-20T15:02:29.008Z,19.30
2023-04-20T15:04:58.797Z,19.30
2023-04-20T15:07:26.320Z,19.30
2023-04-20T15:09:53.545Z,19.30
2023-04-20T15:12:21.000Z,19.20
2023-04-20T15:14:49.189Z,19.20
2023-04-20T15:17:16.493Z,19.20
2023-04-20T15:19:46.124Z,19.10
2023-04-20T15:22:13.745Z,19.00
2023-04-20T15:24:41.001Z,19.00
2023-04-20T15:27:08.909Z,18.90
2023-04-20T15:29:37.303Z,18.80
2023-04-20T15:32:05.004Z,18.70
2023-04-20T15:34:32.176Z,18.70
2023-04-20T15:36:59.416Z,18.60
2023-04-20T15:39:26.606Z,18.60
2023-04-20T15:41:53.794Z,18.50
2023-04-20T15:44:21.106Z,18.40
2023-04-20T15:46:48.738Z,18.40
2023-04-20T15:49:19.956Z,18.40
2023-04-20T15:51:47.783Z,18.40
2023-04-20T15:54:15.681Z,18.40
2023-04-20T15:56:43.003Z,18.40
2023-04-20T15:59:10.185Z,18.50
2023-04-20T16:01:37.409Z,18.40
2023-04-20T16:04:05.103Z,18.50
2023-04-20T16:06:32.584Z,18.50
2023-04-20T16:08:59.788Z,18.60
2023-04-20T16:11:27.175Z,18.70
2023-04-20T16:13:57.767Z,19.00
2023-04-20T16:16:25.631Z,19.20
2023-04-20T16:18:55.034Z,19.10
2023-04-20T16:21:23.431Z,19.10
2023-04-20T16:23:56.708Z,18.80
2023-04-20T16:26:27.193Z,18.80
2023-04-20T16:28:54.483Z,18.60
2023-04-20T16:31:21.825Z,18.50
2023-04-20T16:33:49.183Z,18.40
2023-04-20T16:36:16.665Z,18.20
2023-04-20T16:38:43.967Z,18.20
2023-04-20T16:41:11.228Z,18.10
2023-04-20T16:43:38.513Z,18.00
2023-04-20T16:46:05.885Z,17.90
2023-04-20T16:48:33.169Z,17.80
2023-04-20T16:51:00.453Z,17.80
2023-04-20T16:53:27.689Z,17.70
2023-04-20T16:55:54.932Z,17.60
2023-04-20T16:58:22.665Z,17.50
2023-04-20T17:00:50.496Z,17.50
2023-04-20T17:03:17.904Z,17.40
2023-04-20T17:05:51.185Z,17.30
2023-04-20T17:08:19.003Z,17.20
2023-04-20T17:10:46.273Z,17.10
2023-04-20T17:13:13.715Z,17.00
2023-04-20T17:15:42.766Z,16.90
2023-04-20T17:18:10.011Z,16.80
2023-04-20T17:20:37.295Z,16.80
2023-04-20T17:23:04.598Z,16.60
2023-04-20T17:25:31.996Z,16.50
2023-04-20T17:27:59.255Z,16.40
2023-04-20T17:30:26.553Z,16.30
2023-04-20T17:32:54.197Z,16.20
2023-04-20T17:35:22.709Z,16.10
2023-04-20T17:37:49.761Z,16.00
2023-04-20T17:40:16.961Z,15.90
2023-04-20T17:42:44.285Z,15.70
2023-04-20T17:45:12.002Z,15.60
2023-04-20T17:47:39.284Z,15.50
2023-04-20T17:50:07.723Z,15.40
2023-04-20T17:52:35.901Z,15.40
2023-04-20T17:55:03.396Z,15.30
2023-04-20T17:57:30.708Z,15.20
2023-04-20T17:59:57.992Z,15.10
2023-04-20T18:02:25.466Z,15.00
2023-04-20T18:04:55.335Z,14.90
2023-04-20T18:07:22.735Z,14.80
2023-04-20T18:09:49.967Z,14.80
2023-04-20T18:12:17.241Z,14.70
2023-04-20T18:14:45.275Z,14.60
2023-04-20T18:17:12.623Z,14.50
2023-04-20T18:19:41.084Z,14.40
2023-04-20T18:22:09.107Z,14.40
2023-04-20T18:24:36.314Z,14.30
2023-04-20T18:27:04.151Z,14.30
2023-04-20T18:29:31.549Z,14.20
2023-04-20T18:32:02.002Z,14.10
2023-04-20T18:34:32.070Z,14.00
2023-04-20T18:36:59.755Z,14.00
2023-04-20T18:39:27.209Z,14.00
2023-04-20T18:41:54.480Z,13.90
2023-04-20T18:44:21.904Z,13.80
2023-04-20T18:46:49.475Z,13.90
2023-04-20T18:49:16.796Z,13.80
2023-04-20T18:51:44.056Z,13.70
2023-04-20T18:54:11.421Z,13.70
2023-04-20T18:56:39.601Z,13.70
2023-04-20T18:59:08.536Z,13.60
2023-04-20T19:01:40.388Z,13.60
2023-04-20T19:04:09.001Z,13.50
2023-04-20T19:06:36.462Z,13.50
2023-04-20T19:09:05.870Z,13.50
2023-04-20T19:11:35.911Z,13.40
2023-04-20T19:14:08.458Z,13.30
2023-04-20T19:16:37.037Z,13.30
2023-04-20T19:19:06.725Z,13.30
2023-04-20T19:21:34.268Z,13.30
2023-04-20T19:24:01.679Z,13.20
2023-04-20T19:26:29.398Z,13.20
2023-04-20T19:28:58.296Z,13.20
2023-04-20T19:31:26.563Z,13.10
2023-04-20T19:33:55.338Z,13.10
2023-04-20T19:36:24.365Z,13.10
2023-04-20T19:38:51.679Z,13.10
2023-04-20T19:41:19.050Z,13.10
2023-04-20T19:43:46.286Z,13.10
2023-04-20T19:46:16.870Z,13.00
2023-04-20T19:48:44.773Z,13.00
2023-04-20T19:51:12.008Z,13.00
2023-04-20T19:53:39.210Z,13.00
2023-04-20T19:56:06.788Z,13.00
2023-04-20T19:58:34.204Z,12.90
2023-04-20T20:01:04.656Z,12.90
2023-04-20T20:03:32.154Z,12.90
2023-04-20T20:05:59.593Z,12.90
2023-04-20T20:08:27.187Z,12.80
2023-04-20T20:10:54.470Z,12.80
2023-04-20T20:13:21.686Z,12.80
2023-04-20T20:15:48.980Z,12.80
2023-04-20T20:18:16.408Z,12.80
2023-04-20T20:20:43.610Z,12.70
2023-04-20T20:23:10.897Z,12.70
2023-04-20T20:25:38.260Z,12.70
2023-04-20T20:28:05.750Z,12.70
2023-04-20T20:30:33.096Z,12.70
2023-04-20T20:33:00.808Z,12.60
2023-04-20T20:35:31.795Z,12.60
2023-04-20T20:37:59.875Z,12.60
2023-04-20T20:40:27.143Z,12.60
2023-04-20T20:42:54.415Z,12.60
2023-04-20T20:45:22.002Z,12.50
2023-04-20T20:47:49.345Z,12.50
2023-04-20T20:50:17.125Z,12.50
2023-04-20T20:52:44.416Z,12.50
2023-04-20T20:55:12.379Z,12.50
2023-04-20T20:57:39.814Z,12.50
2023-04-20T21:00:10.442Z,12.60
2023-04-20T21:02:38.665Z,12.60
2023-04-20T21:05:06.698Z,12.60
2023-04-20T21:07:34.029Z,12.60
2023-04-20T21:10:01.589Z,12.70
2023-04-20T21:12:28.782Z,12.70
2023-04-20T21:14:56.102Z,12.70
2023-04-20T21:17:23.373Z,12.70
2023-04-20T21:19:51.621Z,12.70
2023-04-20T21:22:20.189Z,12.60
2023-04-20T21:24:47.383Z,12.60
2023-04-20T21:27:14.604Z,12.50
2023-04-20T21:29:41.786Z,12.50
2023-04-20T21:32:09.980Z,12.50
2023-04-20T21:34:37.257Z,12.50
2023-04-20T21:37:05.704Z,12.40
2023-04-20T21:39:32.891Z,12.40
2023-04-20T21:42:01.526Z,12.40
2023-04-20T21:44:29.203Z,12.30
2023-04-20T21:46:56.561Z,12.30
2023-04-20T21:49:23.770Z,12.30
2023-04-20T21:51:50.970Z,12.30
2023-04-20T21:54:18.141Z,12.30
2023-04-20T21:56:46.633Z,12.20
2023-04-20T21:59:14.475Z,12.20
2023-04-20T22:01:41.678Z,12.20
2023-04-20T22:04:10.410Z,12.10
2023-04-20T22:06:38.038Z,12.10
2023-04-20T22:09:05.337Z,12.00
2023-04-20T22:11:36.434Z,12.00
2023-04-20T22:14:04.604Z,12.00
2023-04-20T22:16:34.034Z,12.00
2023-04-20T22:19:01.493Z,11.90
2023-04-20T22:21:28.786Z,12.00
2023-04-20T22:23:56.053Z,12.10
2023-04-20T22:26:23.751Z,12.00
2023-04-20T22:28:50.970Z,12.10
2023-04-20T22:31:18.205Z,12.10
2023-04-20T22:33:45.532Z,12.10
2023-04-20T22:36:13.026Z,12.10
2023-04-20T22:38:40.586Z,12.10
2023-04-20T22:41:07.998Z,12.20
2023-04-20T22:43:35.311Z,12.10
2023-04-20T22:46:02.582Z,12.10
2023-04-20T22:48:29.850Z,12.10
2023-04-20T22:51:00.813Z,12.10
2023-04-20T22:53:30.200Z,12.20
2023-04-20T22:56:05.929Z,12.20
2023-04-20T22:58:33.708Z,12.20
2023-04-20T23:01:01.065Z,12.20
2023-04-20T23:03:28.713Z,12.20
2023-04-20T23:05:57.512Z,12.10
2023-04-20T23:08:26.162Z,12.20
2023-04-20T23:10:56.309Z,12.10
2023-04-20T23:13:26.183Z,12.20
2023-04-20T23:15:53.718Z,12.10
2023-04-20T23:18:20.947Z,12.10
2023-04-20T23:20:48.198Z,12.10
2023-04-20T23:23:15.534Z,12.10
2023-04-20T23:25:42.765Z,12.00
2023-04-20T23:28:10.011Z,12.00
2023-04-20T23:30:37.231Z,12.00
2023-04-20T23:33:04.561Z,11.90
2023-04-20T23:35:31.868Z,12.00
2023-04-20T23:37:59.173Z,11.90
2023-04-20T23:40:26.479Z,11.90
2023-04-20T23:42:55.196Z,11.90
2023-04-20T23:45:23.531Z,11.90
2023-04-20T23:47:50.895Z,12.00
2023-04-20T23:50:18.230Z,11.90
2023-04-20T23:52:45.492Z,11.90
2023-04-20T23:55:12.745Z,11.90
2023-04-20T23:57:39.979Z,11.90
